createdAt,value
2023-05-11T00:01:48.473Z,9.63
2023-05-11T00:04:17.070Z,6.63
2023-05-11T00:06:46.690Z,7.93
2023-05-11T00:09:14.798Z,6.47
2023-05-11T00:11:42.974Z,7.63
2023-05-11T00:14:11.093Z,10.70
2023-05-11T00:16:39.201Z,6.40
2023-05-11T00:19:07.389Z,8.15
2023-05-11T00:21:35.582Z,11.57
2023-05-11T00:24:05.409Z,6.38
2023-05-11T00:26:33.533Z,5.93
2023-05-11T00:29:01.639Z,5.65
2023-05-11T00:31:30.657Z,6.82
2023-05-11T00:33:58.899Z,5.75
2023-05-11T00:36:27.433Z,7.40
2023-05-11T00:38:55.585Z,8.82
2023-05-11T00:41:25.138Z,6.03
2023-05-11T00:43:53.249Z,6.28
2023-05-11T00:46:22.348Z,7.15
2023-05-11T00:48:50.510Z,8.05
2023-05-11T00:51:19.296Z,13.55
2023-05-11T00:53:47.455Z,10.77
2023-05-11T00:56:16.117Z,10.40
2023-05-11T00:58:45.717Z,11.73
2023-05-11T01:01:14.895Z,12.52
2023-05-11T01:03:43.124Z,13.63
2023-05-11T01:06:15.247Z,11.20
2023-05-11T01:08:49.084Z,9.48
2023-05-11T01:11:22.588Z,9.53
2023-05-11T01:13:54.523Z,9.10
2023-05-11T01:16:25.027Z,12.88
2023-05-11T01:18:57.584Z,8.13
2023-05-11T01:21:27.392Z,8.07
2023-05-11T01:24:23.167Z,10.40
2023-05-11T01:27:04.519Z,11.03
2023-05-11T01:29:50.546Z,8.80
2023-05-11T01:32:23.338Z,9.30
2023-05-11T01:35:00.912Z,8.38
2023-05-11T01:37:32.615Z,10.50
2023-05-11T01:40:04.887Z,12.67
2023-05-11T01:42:49.479Z,14.47
2023-05-11T01:45:19.084Z,11.27
2023-05-11T01:47:51.899Z,11.23
2023-05-11T01:50:22.258Z,14.37
2023-05-11T01:52:51.751Z,10.37
2023-05-11T01:55:22.775Z,10.35
2023-05-11T01:57:54.287Z,11.27
2023-05-11T02:00:23.728Z,8.43
2023-05-11T02:02:54.713Z,8.80
2023-05-11T02:05:25.082Z,10.30
2023-05-11T02:07:55.458Z,7.23
2023-05-11T02:10:26.478Z,10.33
2023-05-11T02:12:55.619Z,10.50
2023-05-11T02:15:25.099Z,10.40
2023-05-11T02:17:55.369Z,10.77
2023-05-11T02:20:25.112Z,11.70
2023-05-11T02:22:55.782Z,9.07
2023-05-11T02:25:25.136Z,10.73
2023-05-11T02:27:53.320Z,10.57
2023-05-11T02:30:21.612Z,9.07
2023-05-11T02:32:52.982Z,8.57
2023-05-11T02:35:26.713Z,9.07
2023-05-11T02:37:58.866Z,9.73
2023-05-11T02:40:30.890Z,11.10
2023-05-11T02:43:02.007Z,10.73
2023-05-11T02:45:33.588Z,17.57
2023-05-11T02:48:08.527Z,13.10
2023-05-11T02:50:40.920Z,12.33
2023-05-11T02:53:15.765Z,11.53
2023-05-11T02:55:44.121Z,11.67
2023-05-11T02:58:12.481Z,10.13
2023-05-11T03:00:40.837Z,10.83
2023-05-11T03:03:09.560Z,7.67
2023-05-11T03:05:39.166Z,10.63
2023-05-11T03:08:07.494Z,11.80
2023-05-11T03:10:36.293Z,12.90
2023-05-11T03:13:05.340Z,10.53
2023-05-11T03:15:34.527Z,16.03
2023-05-11T03:18:04.080Z,13.60
2023-05-11T03:20:34.568Z,11.57
2023-05-11T03:23:05.398Z,7.03
2023-05-11T03:25:34.017Z,12.43
2023-05-11T03:28:02.739Z,12.53
2023-05-11T03:30:31.969Z,10.17
2023-05-11T03:33:00.280Z,12.03
2023-05-11T03:35:30.154Z,10.43
2023-05-11T03:37:59.883Z,9.57
2023-05-11T03:40:31.628Z,6.50
2023-05-11T03:43:02.797Z,7.23
2023-05-11T03:45:32.762Z,6.60
2023-05-11T03:48:01.647Z,10.33
2023-05-11T03:50:30.700Z,11.50
2023-05-11T03:52:59.520Z,9.43
2023-05-11T03:55:29.139Z,8.30
2023-05-11T03:57:57.366Z,8.27
2023-05-11T04:00:25.682Z,5.77
2023-05-11T04:02:54.143Z,9.10
2023-05-11T04:05:22.365Z,7.70
2023-05-11T04:07:52.740Z,19.10
2023-05-11T04:10:22.537Z,6.40
2023-05-11T04:12:52.938Z,9.00
2023-05-11T04:15:21.109Z,8.07
2023-05-11T04:17:49.373Z,8.33
2023-05-11T04:20:17.907Z,11.52
2023-05-11T04:22:46.275Z,7.55
2023-05-11T04:25:14.752Z,5.95
2023-05-11T04:27:42.928Z,6.53
2023-05-11T04:30:13.524Z,5.75
2023-05-11T04:32:41.624Z,7.17
2023-05-11T04:35:10.395Z,7.05
2023-05-11T04:37:39.104Z,9.10
2023-05-11T04:40:08.725Z,10.52
2023-05-11T04:42:36.836Z,10.23
2023-05-11T04:45:05.419Z,11.80
2023-05-11T04:47:34.978Z,6.78
2023-05-11T04:50:03.640Z,8.07
2023-05-11T04:52:31.795Z,7.63
2023-05-11T04:54:59.933Z,9.88
2023-05-11T04:57:28.062Z,9.13
2023-05-11T04:59:56.382Z,10.80
2023-05-11T05:02:24.672Z,7.57
2023-05-11T05:04:54.239Z,7.28
2023-05-11T05:07:22.383Z,5.93
2023-05-11T05:09:50.566Z,5.45
2023-05-11T05:12:18.695Z,6.65
2023-05-11T05:14:46.862Z,7.20
2023-05-11T05:17:15.090Z,6.30
2023-05-11T05:19:43.277Z,6.90
2023-05-11T05:22:12.824Z,7.43
2023-05-11T05:24:40.934Z,5.25
2023-05-11T05:27:09.041Z,9.00
2023-05-11T05:29:37.198Z,9.48
2023-05-11T05:32:05.606Z,5.93
2023-05-11T05:34:33.733Z,6.75
2023-05-11T05:37:01.925Z,6.28
2023-05-11T05:39:31.473Z,6.18
2023-05-11T05:41:59.623Z,6.90
2023-05-11T05:44:27.817Z,6.28
2023-05-11T05:46:56.595Z,6.10
2023-05-11T05:49:24.734Z,9.82
2023-05-11T05:51:52.935Z,6.53
2023-05-11T05:54:21.140Z,5.65
2023-05-11T05:56:51.187Z,6.95
2023-05-11T05:59:23.285Z,6.15
2023-05-11T06:01:52.278Z,10.20
2023-05-11T06:04:20.548Z,7.85
2023-05-11T06:06:48.738Z,5.00
2023-05-11T06:09:16.868Z,9.38
2023-05-11T06:11:45.013Z,10.70
2023-05-11T06:14:14.541Z,8.55
2023-05-11T06:16:42.817Z,5.80
2023-05-11T06:19:11.267Z,6.07
2023-05-11T06:21:41.638Z,9.43
2023-05-11T06:24:10.127Z,5.05
2023-05-11T06:26:38.476Z,4.68
2023-05-11T06:29:06.646Z,5.63
2023-05-11T06:31:37.006Z,5.20
2023-05-11T06:34:05.216Z,4.97
2023-05-11T06:36:33.439Z,8.38
2023-05-11T06:39:01.642Z,7.43
2023-05-11T06:41:29.766Z,12.00
2023-05-11T06:43:57.929Z,9.18
2023-05-11T06:46:26.478Z,9.88
2023-05-11T06:48:56.242Z,6.38
2023-05-11T06:51:24.488Z,4.88
2023-05-11T06:53:52.657Z,6.35
2023-05-11T06:56:21.829Z,6.32
2023-05-11T06:58:49.963Z,7.07
2023-05-11T07:01:18.174Z,9.60
2023-05-11T07:03:48.853Z,8.60
2023-05-11T07:06:18.594Z,7.35
2023-05-11T07:08:46.756Z,2.63
2023-05-11T07:11:15.576Z,6.93
2023-05-11T07:13:43.719Z,11.25
2023-05-11T07:16:11.951Z,6.85
2023-05-11T07:18:40.204Z,3.47
2023-05-11T07:21:08.828Z,5.57
2023-05-11T07:23:38.368Z,4.53
2023-05-11T07:26:09.138Z,3.40
2023-05-11T07:28:37.397Z,4.82
2023-05-11T07:31:06.145Z,8.60
2023-05-11T07:33:34.723Z,3.75
2023-05-11T07:36:02.879Z,4.95
2023-05-11T07:38:31.018Z,6.40
2023-05-11T07:41:00.800Z,5.22
2023-05-11T07:43:28.996Z,6.05
2023-05-11T07:45:57.193Z,6.32
2023-05-11T07:48:25.386Z,5.75
2023-05-11T07:50:53.495Z,5.18
2023-05-11T07:53:21.703Z,5.75
2023-05-11T07:55:49.945Z,4.47
2023-05-11T07:58:19.560Z,6.63
2023-05-11T08:00:47.718Z,5.47
2023-05-11T08:03:15.977Z,4.28
2023-05-11T08:05:44.493Z,2.08
2023-05-11T08:08:12.695Z,3.63
2023-05-11T08:10:41.018Z,4.97
2023-05-11T08:13:09.269Z,3.30
2023-05-11T08:15:39.069Z,7.57
2023-05-11T08:18:07.891Z,3.78
2023-05-11T08:20:36.136Z,9.15
2023-05-11T08:23:04.650Z,2.40
2023-05-11T08:25:32.777Z,3.42
2023-05-11T08:28:01.236Z,4.25
2023-05-11T08:30:29.468Z,8.30
2023-05-11T08:32:59.635Z,4.78
2023-05-11T08:35:28.020Z,3.17
2023-05-11T08:37:56.173Z,5.80
2023-05-11T08:40:27.692Z,6.32
2023-05-11T08:42:57.570Z,7.50
2023-05-11T08:45:27.413Z,2.92
2023-05-11T08:47:55.907Z,6.70
2023-05-11T08:50:25.508Z,4.72
2023-05-11T08:52:53.717Z,2.33
2023-05-11T08:55:23.354Z,3.90
2023-05-11T08:57:53.504Z,6.97
2023-05-11T09:00:23.342Z,3.38
2023-05-11T09:02:53.113Z,4.82
2023-05-11T09:05:22.294Z,4.70
2023-05-11T09:07:55.378Z,3.45
2023-05-11T09:10:23.670Z,3.85
2023-05-11T09:12:51.851Z,4.40
2023-05-11T09:15:20.238Z,5.13
2023-05-11T09:17:48.747Z,4.18
2023-05-11T09:20:17.376Z,5.47
2023-05-11T09:22:47.165Z,5.85
2023-05-11T09:25:18.055Z,5.10
2023-05-11T09:27:47.711Z,5.70
2023-05-11T09:32:50.809Z,3.67
2023-05-11T09:35:26.270Z,4.55
2023-05-11T09:38:02.658Z,4.93
2023-05-11T09:40:34.747Z,2.90
2023-05-11T09:43:04.008Z,3.45
2023-05-11T09:45:43.007Z,4.63
2023-05-11T09:48:27.402Z,4.57
2023-05-11T09:51:02.339Z,5.32
2023-05-11T09:53:43.064Z,4.00
2023-05-11T09:56:13.886Z,3.92
2023-05-11T09:58:54.422Z,4.15
2023-05-11T10:01:30.841Z,5.13
2023-05-11T10:04:17.820Z,6.75
2023-05-11T10:06:50.807Z,4.05
2023-05-11T10:09:24.290Z,3.95
2023-05-11T10:11:56.325Z,3.40
2023-05-11T10:14:26.047Z,2.60
2023-05-11T10:16:54.977Z,6.50
2023-05-11T10:19:23.522Z,5.75
2023-05-11T10:21:53.598Z,3.78
2023-05-11T10:24:21.959Z,5.85
2023-05-11T10:26:50.996Z,4.97
2023-05-11T10:29:21.379Z,7.55
2023-05-11T10:31:51.188Z,3.47
2023-05-11T10:34:23.179Z,2.20
2023-05-11T10:36:53.383Z,5.93
2023-05-11T10:39:22.072Z,6.15
2023-05-11T10:42:01.972Z,3.55
2023-05-11T10:45:01.492Z,7.15
2023-05-11T10:47:50.762Z,5.47
2023-05-11T10:50:33.407Z,4.20
2023-05-11T10:53:37.057Z,2.90
2023-05-11T10:56:21.325Z,9.52
2023-05-11T10:59:08.762Z,4.13
2023-05-11T11:01:40.527Z,3.10
2023-05-11T11:04:10.558Z,5.07
2023-05-11T11:06:40.064Z,3.30
2023-05-11T11:09:12.739Z,13.05
2023-05-11T11:11:42.694Z,2.92
2023-05-11T11:14:12.204Z,3.88
2023-05-11T11:16:42.756Z,6.35
2023-05-11T11:19:42.402Z,7.65
2023-05-11T11:22:44.471Z,4.50
2023-05-11T11:25:13.645Z,5.20
2023-05-11T11:28:01.681Z,4.15
2023-05-11T11:30:30.959Z,2.63
2023-05-11T11:33:37.606Z,9.57
2023-05-11T11:36:06.335Z,4.10
2023-05-11T11:38:35.086Z,2.50
2023-05-11T11:41:03.546Z,5.10
2023-05-11T11:43:45.836Z,6.40
2023-05-11T11:46:28.033Z,4.72
2023-05-11T11:49:09.907Z,6.63
2023-05-11T11:51:40.560Z,3.70
2023-05-11T11:54:09.802Z,5.90
2023-05-11T11:56:43.668Z,5.28
2023-05-11T11:59:16.206Z,6.22
2023-05-11T12:01:46.499Z,5.32
2023-05-11T12:04:40.921Z,3.25
2023-05-11T12:07:11.462Z,12.52
2023-05-11T12:09:42.454Z,4.80
2023-05-11T12:12:11.959Z,4.80
2023-05-11T12:14:42.103Z,5.25
2023-05-11T12:17:15.357Z,3.25
2023-05-11T12:19:45.760Z,6.05
2023-05-11T12:22:16.421Z,2.60
2023-05-11T12:24:45.054Z,5.25
2023-05-11T12:27:13.399Z,6.45
2023-05-11T12:29:42.487Z,5.75
2023-05-11T12:32:14.337Z,6.82
2023-05-11T12:34:43.993Z,4.53
2023-05-11T12:37:12.580Z,4.40
2023-05-11T12:39:40.724Z,4.50
2023-05-11T12:42:08.924Z,3.95
2023-05-11T12:44:37.272Z,9.43
2023-05-11T12:47:05.875Z,3.35
2023-05-11T12:49:34.451Z,4.88
2023-05-11T12:52:08.046Z,3.72
2023-05-11T12:54:38.051Z,3.28
2023-05-11T12:57:07.562Z,6.95
2023-05-11T12:59:38.083Z,4.25
2023-05-11T13:02:15.076Z,5.00
2023-05-11T13:04:44.663Z,5.00
2023-05-11T13:07:15.306Z,3.90
2023-05-11T13:09:43.607Z,2.72
2023-05-11T13:12:13.942Z,5.40
2023-05-11T13:14:42.480Z,3.25
2023-05-11T13:17:10.664Z,3.95
2023-05-11T13:19:39.424Z,5.68
2023-05-11T13:22:08.351Z,4.30
2023-05-11T13:24:37.868Z,6.13
2023-05-11T13:27:06.404Z,5.95
2023-05-11T13:29:34.760Z,4.00
2023-05-11T13:32:02.909Z,7.63
2023-05-11T13:34:31.114Z,4.55
2023-05-11T13:36:59.226Z,3.13
2023-05-11T13:39:27.335Z,5.93
2023-05-11T13:41:56.843Z,3.22
2023-05-11T13:44:24.961Z,3.22
2023-05-11T13:46:53.152Z,3.38
2023-05-11T13:49:21.692Z,4.35
2023-05-11T13:51:49.954Z,4.72
2023-05-11T13:54:18.068Z,6.75
2023-05-11T13:56:46.233Z,8.88
2023-05-11T13:59:15.861Z,3.85
2023-05-11T14:01:44.224Z,7.15
2023-05-11T14:04:12.415Z,7.13
2023-05-11T14:06:40.564Z,7.80
2023-05-11T14:09:08.709Z,5.00
2023-05-11T14:11:38.681Z,3.60
2023-05-11T14:14:07.696Z,8.70
2023-05-11T14:16:37.440Z,2.47
2023-05-11T14:19:05.786Z,4.15
2023-05-11T14:21:34.030Z,3.95
2023-05-11T14:24:11.345Z,3.63
2023-05-11T14:26:40.144Z,3.72
2023-05-11T14:29:08.498Z,2.72
2023-05-11T14:31:38.581Z,4.22
2023-05-11T14:34:07.015Z,4.40
2023-05-11T14:36:35.249Z,2.75
2023-05-11T14:39:04.030Z,8.00
2023-05-11T14:41:32.341Z,4.78
2023-05-11T14:44:00.656Z,2.95
2023-05-11T14:46:29.192Z,5.03
2023-05-11T14:48:58.702Z,3.35
2023-05-11T14:51:26.884Z,3.28
2023-05-11T14:53:55.051Z,5.15
2023-05-11T14:56:23.432Z,4.82
2023-05-11T14:58:51.640Z,2.90
2023-05-11T15:01:19.789Z,2.45
2023-05-11T15:03:48.097Z,4.15
2023-05-11T15:06:21.520Z,4.80
2023-05-11T15:08:50.407Z,4.25
2023-05-11T15:11:18.716Z,3.05
2023-05-11T15:13:48.485Z,5.47
2023-05-11T15:16:16.776Z,3.75
2023-05-11T15:18:45.065Z,5.15
2023-05-11T15:21:13.175Z,4.22
2023-05-11T15:23:42.660Z,6.20
2023-05-11T15:26:10.815Z,6.45
2023-05-11T15:28:38.976Z,6.15
2023-05-11T15:31:07.136Z,5.93
2023-05-11T15:33:35.475Z,6.95
2023-05-11T15:36:03.689Z,7.43
2023-05-11T15:38:31.785Z,12.07
2023-05-11T15:41:02.087Z,4.25
2023-05-11T15:43:30.220Z,2.70
2023-05-11T15:45:58.605Z,2.95
2023-05-11T15:48:26.978Z,2.80
2023-05-11T15:50:55.111Z,6.00
2023-05-11T15:53:23.309Z,4.57
2023-05-11T15:55:53.521Z,4.95
2023-05-11T15:58:23.644Z,4.18
2023-05-11T16:00:52.064Z,3.28
2023-05-11T16:03:20.592Z,5.35
2023-05-11T16:05:48.900Z,4.30
2023-05-11T16:08:17.453Z,5.13
2023-05-11T16:10:45.749Z,4.38
2023-05-11T16:13:13.887Z,7.40
2023-05-11T16:15:43.635Z,6.32
2023-05-11T16:18:14.033Z,4.03
2023-05-11T16:20:42.253Z,4.90
2023-05-11T16:23:10.426Z,1.67
2023-05-11T16:25:38.580Z,5.38
2023-05-11T16:28:06.840Z,3.65
2023-05-11T16:30:35.068Z,6.40
2023-05-11T16:33:04.683Z,6.57
2023-05-11T16:35:32.851Z,4.90
2023-05-11T16:38:01.122Z,7.93
2023-05-11T16:40:29.270Z,5.40
2023-05-11T16:42:57.801Z,3.38
2023-05-11T16:45:25.917Z,5.00
2023-05-11T16:47:54.077Z,29.08
2023-05-11T16:50:23.790Z,9.00
2023-05-11T16:52:51.933Z,5.70
2023-05-11T16:55:21.351Z,7.25
2023-05-11T16:57:49.527Z,8.68
2023-05-11T17:00:18.465Z,9.13
2023-05-11T17:02:47.298Z,4.25
2023-05-11T17:05:18.035Z,7.68
2023-05-11T17:07:47.575Z,3.05
2023-05-11T17:10:16.145Z,7.28
2023-05-11T17:12:44.336Z,4.75
2023-05-11T17:15:12.677Z,2.92
2023-05-11T17:17:41.198Z,3.80
2023-05-11T17:20:10.644Z,3.65
2023-05-11T17:22:38.814Z,3.15
2023-05-11T17:25:09.339Z,5.20
2023-05-11T17:27:37.759Z,4.97
2023-05-11T17:30:07.023Z,8.20
2023-05-11T17:32:35.446Z,8.77
2023-05-11T17:35:04.145Z,6.45
2023-05-11T17:37:32.717Z,5.40
2023-05-11T17:40:01.300Z,6.57
2023-05-11T17:42:31.724Z,4.65
2023-05-11T17:44:59.925Z,7.05
2023-05-11T17:47:28.114Z,7.75
2023-05-11T17:49:57.413Z,3.63
2023-05-11T17:52:25.973Z,6.35
2023-05-11T17:54:54.109Z,3.95
2023-05-11T17:57:23.663Z,5.65
2023-05-11T17:59:53.573Z,4.60
2023-05-11T18:02:21.905Z,5.57
2023-05-11T18:04:50.369Z,4.05
2023-05-11T18:07:18.672Z,5.25
2023-05-11T18:09:46.828Z,6.68
2023-05-11T18:12:15.012Z,24.88
2023-05-11T18:14:43.155Z,8.57
2023-05-11T18:17:12.892Z,8.23
2023-05-11T18:19:41.296Z,13.38
2023-05-11T18:22:09.430Z,6.72
2023-05-11T18:24:37.542Z,7.13
2023-05-11T18:27:06.093Z,7.93
2023-05-11T18:29:34.258Z,6.20
2023-05-11T18:32:02.445Z,9.27
2023-05-11T18:34:33.247Z,10.40
2023-05-11T18:37:01.458Z,10.90
2023-05-11T18:39:29.753Z,13.63
2023-05-11T18:42:01.000Z,8.40
2023-05-11T18:44:29.355Z,12.98
2023-05-11T18:46:57.586Z,13.20
2023-05-11T18:49:25.865Z,7.68
2023-05-11T18:51:55.691Z,19.52
2023-05-11T18:54:24.045Z,10.27
2023-05-11T18:56:52.190Z,11.45
2023-05-11T18:59:20.372Z,7.65
2023-05-11T19:01:48.881Z,7.97
2023-05-11T19:04:19.802Z,17.40
2023-05-11T19:06:48.273Z,10.32
2023-05-11T19:09:17.847Z,7.47
2023-05-11T19:11:45.998Z,11.27
2023-05-11T19:14:15.975Z,9.25
2023-05-11T19:16:44.128Z,10.38
2023-05-11T19:19:12.815Z,13.98
2023-05-11T19:21:42.560Z,16.80
2023-05-11T19:24:11.800Z,18.05
2023-05-11T19:26:43.859Z,16.75
2023-05-11T19:29:17.706Z,25.23
2023-05-11T19:31:46.122Z,17.42
2023-05-11T19:34:14.414Z,11.10
2023-05-11T19:36:42.866Z,12.07
2023-05-11T19:39:11.537Z,16.02
2023-05-11T19:41:41.044Z,15.82
2023-05-11T19:44:09.219Z,11.73
2023-05-11T19:46:39.246Z,14.07
2023-05-11T19:49:07.653Z,11.57
2023-05-11T19:51:35.847Z,11.05
2023-05-11T19:54:04.070Z,10.85
2023-05-11T19:56:32.889Z,12.88
2023-05-11T19:59:02.709Z,11.88
2023-05-11T20:01:30.921Z,9.52
2023-05-11T20:03:59.265Z,15.02
2023-05-11T20:06:27.615Z,18.35
2023-05-11T20:08:56.702Z,12.98
2023-05-11T20:11:26.462Z,13.25
2023-05-11T20:13:55.416Z,14.68
2023-05-11T20:16:25.009Z,16.60
2023-05-11T20:18:53.886Z,15.43
2023-05-11T20:21:22.254Z,15.77
2023-05-11T20:23:50.498Z,15.55
2023-05-11T20:26:18.778Z,11.50
2023-05-11T20:28:46.975Z,11.13
2023-05-11T20:31:15.152Z,15.48
2023-05-11T20:36:16.589Z,11.38
2023-05-11T20:38:44.756Z,11.45
2023-05-11T20:41:13.140Z,10.02
2023-05-11T20:43:41.405Z,11.25
2023-05-11T20:46:11.500Z,14.60
2023-05-11T20:48:41.438Z,11.98
2023-05-11T20:51:12.451Z,14.07
2023-05-11T20:53:40.601Z,8.98
2023-05-11T20:56:10.106Z,13.15
2023-05-11T20:58:38.293Z,15.85
2023-05-11T21:01:06.612Z,10.63
2023-05-11T21:03:34.981Z,14.00
2023-05-11T21:06:03.532Z,12.95
2023-05-11T21:08:33.126Z,11.93
2023-05-11T21:11:01.278Z,14.32
2023-05-11T21:13:30.491Z,12.30
2023-05-11T21:15:58.644Z,11.30
2023-05-11T21:18:32.014Z,11.63
2023-05-11T21:21:00.337Z,11.52
2023-05-11T21:23:29.695Z,13.73
2023-05-11T21:26:00.086Z,12.30
2023-05-11T21:28:28.949Z,12.82
2023-05-11T21:30:57.798Z,11.73
2023-05-11T21:33:25.967Z,11.52
2023-05-11T21:35:54.274Z,12.05
2023-05-11T21:38:22.509Z,13.10
2023-05-11T21:40:54.738Z,11.23
2023-05-11T21:43:24.275Z,12.27
2023-05-11T21:45:52.620Z,12.68
2023-05-11T21:48:20.809Z,11.25
2023-05-11T21:50:53.609Z,13.07
2023-05-11T21:53:22.436Z,14.95
2023-05-11T21:55:50.580Z,15.50
2023-05-11T21:58:18.997Z,15.50
2023-05-11T22:00:48.524Z,17.58
2023-05-11T22:03:16.697Z,18.77
2023-05-11T22:05:44.966Z,14.10
2023-05-11T22:08:15.480Z,13.75
2023-05-11T22:10:44.425Z,13.55
2023-05-11T22:13:12.609Z,15.48
2023-05-11T22:15:40.746Z,15.50
2023-05-11T22:18:10.339Z,14.05
2023-05-11T22:20:38.483Z,11.23
2023-05-11T22:23:06.695Z,13.30
2023-05-11T22:25:34.878Z,18.40
2023-05-11T22:28:03.047Z,15.55
2023-05-11T22:30:31.309Z,13.02
2023-05-11T22:32:59.529Z,16.63
2023-05-11T22:35:29.325Z,17.10
2023-05-11T22:37:57.501Z,14.88
2023-05-11T22:40:25.759Z,19.20
2023-05-11T22:42:53.913Z,14.40
2023-05-11T22:45:22.189Z,16.55
2023-05-11T22:47:50.422Z,17.35
2023-05-11T22:50:19.029Z,16.35
2023-05-11T22:52:48.825Z,13.77
2023-05-11T22:55:17.172Z,15.80
2023-05-11T22:57:45.366Z,11.80
2023-05-11T23:00:14.338Z,15.65
2023-05-11T23:02:42.999Z,14.13
2023-05-11T23:05:11.557Z,15.18
2023-05-11T23:07:39.719Z,14.20
2023-05-11T23:10:10.042Z,13.95
2023-05-11T23:12:38.244Z,15.80
2023-05-11T23:15:07.675Z,17.10
2023-05-11T23:17:35.881Z,18.80
2023-05-11T23:20:04.441Z,13.25
2023-05-11T23:22:32.581Z,15.25
2023-05-11T23:25:02.053Z,15.45
2023-05-11T23:27:31.669Z,14.32
2023-05-11T23:29:59.903Z,14.23
2023-05-11T23:32:28.117Z,15.18
2023-05-11T23:34:56.294Z,15.60
2023-05-11T23:37:24.400Z,9.88
2023-05-11T23:39:52.733Z,12.98
2023-05-11T23:42:20.904Z,15.98
2023-05-11T23:44:50.518Z,16.38
2023-05-11T23:47:18.707Z,12.15
2023-05-11T23:49:46.830Z,11.73
2023-05-11T23:52:14.999Z,13.15
2023-05-11T23:54:43.087Z,15.93
2023-05-11T23:57:11.224Z,14.63
2023-05-11T23:59:39.410Z,13.70
